Time;durP1;ratioP1;P1;durP2;ratioP2;P2;SDS_P1;SDS_P2;PMS_P1;PMS_P2;Temp;Humidity;BMP_temperature;BMP_pressure;BME280_temperature;BME280_humidity;BME280_pressure;Samples;Min_cycle;Max_cycle;Signal;HPM_P1;HPM_P2
2022/11/06 00:01:25;;;;;;;81.07;42.23;;;7.70;99.90;;;;;;10447705;28;20509;-77
2022/11/06 00:11:47;;;;;;;59.57;30.37;;;7.60;99.90;;;;;;10447484;28;20048;-83
2022/11/06 00:16:48;;;;;;;60.50;30.83;;;7.60;99.90;;;;;;10446732;28;20041;-80
2022/11/06 00:21:48;;;;;;;53.83;27.10;;;7.60;99.90;;;;;;10447231;28;20025;-78
2022/11/06 00:26:49;;;;;;;49.83;24.47;;;7.60;99.90;;;;;;10446959;28;20068;-78
2022/11/06 00:31:49;;;;;;;56.77;27.07;;;7.60;99.90;;;;;;10445853;28;20782;-80
2022/11/06 00:36:50;;;;;;;31.43;15.73;;;7.60;99.90;;;;;;10446370;28;20028;-77
2022/11/06 00:41:50;;;;;;;27.13;13.73;;;7.60;99.90;;;;;;10446718;28;20041;-80
2022/11/06 00:46:51;;;;;;;37.13;16.77;;;7.60;99.90;;;;;;10446129;28;20090;-78
2022/11/06 00:51:51;;;;;;;51.63;24.93;;;7.60;99.90;;;;;;10445935;28;20052;-77
2022/11/06 00:56:52;;;;;;;50.53;20.60;;;7.60;99.90;;;;;;10444875;28;20029;-77
2022/11/06 01:01:52;;;;;;;39.93;17.13;;;7.60;99.90;;;;;;10459955;22;20059;-81
2022/11/06 01:06:55;;;;;;;43.57;20.57;;;7.60;99.90;;;;;;10445154;28;20017;-80
2022/11/06 01:11:58;;;;;;;35.73;13.50;;;7.50;99.90;;;;;;10445996;28;20025;-80
2022/11/06 01:16:58;;;;;;;47.10;21.57;;;7.50;99.90;;;;;;10445485;28;20697;-81
2022/11/06 01:21:59;;;;;;;51.33;22.50;;;7.50;99.90;;;;;;10445882;28;20036;-81
2022/11/06 01:26:59;;;;;;;35.57;14.87;;;7.50;99.90;;;;;;10445593;28;20032;-80
2022/11/06 01:32:00;;;;;;;32.50;14.50;;;7.50;99.90;;;;;;10445293;28;20069;-77
2022/11/06 01:37:01;;;;;;;32.40;14.27;;;7.50;99.90;;;;;;10445131;28;20052;-77
2022/11/06 01:42:01;;;;;;;32.13;15.73;;;7.50;99.90;;;;;;10446037;28;20111;-79
2022/11/06 01:47:17;;;;;;;37.87;19.53;;;7.40;99.90;;;;;;10426517;28;20431;-78
2022/11/06 01:52:19;;;;;;;52.58;21.50;;;7.40;99.90;;;;;;10444605;28;20033;-79
2022/11/06 01:57:20;;;;;;;42.63;19.40;;;7.40;99.90;;;;;;10452806;28;20024;-77
2022/11/06 02:02:22;;;;;;;67.73;31.20;;;7.40;99.90;;;;;;10452149;28;20382;-80
2022/11/06 02:07:22;;;;;;;43.50;18.93;;;7.30;99.90;;;;;;10451860;28;20033;-77
2022/11/06 02:12:36;;;;;;;23.20;11.37;;;7.30;99.90;;;;;;10453038;28;20033;-81
2022/11/06 02:17:45;;;;;;;26.60;11.67;;;7.30;99.90;;;;;;10451685;28;20032;-80
2022/11/06 02:23:06;;;;;;;24.07;11.53;;;7.30;99.90;;;;;;10451677;28;20036;-77
2022/11/06 02:28:17;;;;;;;24.67;11.67;;;7.20;99.90;;;;;;10451721;28;20033;-77
2022/11/06 02:33:27;;;;;;;30.03;12.73;;;7.20;99.90;;;;;;10450061;28;20063;-77
2022/11/06 02:38:37;;;;;;;24.77;11.50;;;7.20;99.90;;;;;;10451142;28;20400;-79
2022/11/06 02:43:44;;;;;;;25.33;11.53;;;7.10;99.90;;;;;;10451473;28;20028;-77
2022/11/06 02:48:52;;;;;;;27.63;10.43;;;7.10;99.90;;;;;;10449803;28;20118;-79
2022/11/06 02:53:57;;;;;;;22.80;9.73;;;7.00;99.90;;;;;;10450367;28;20187;-77
2022/11/06 02:59:03;;;;;;;22.73;9.93;;;7.00;99.90;;;;;;10451074;28;20033;-78
2022/11/06 03:04:11;;;;;;;20.10;9.53;;;7.00;99.90;;;;;;10449279;28;20052;-78
2022/11/06 03:09:19;;;;;;;22.27;8.70;;;7.00;99.90;;;;;;10448986;28;20025;-81
2022/11/06 03:14:28;;;;;;;20.70;7.63;;;6.90;99.90;;;;;;10426632;28;20037;-77
2022/11/06 03:19:45;;;;;;;18.13;7.80;;;6.90;99.90;;;;;;10447982;28;20028;-80
2022/11/06 03:25:16;;;;;;;17.30;8.50;;;6.80;99.90;;;;;;10451083;28;20029;-77
2022/11/06 03:30:17;;;;;;;18.30;6.50;;;6.60;99.90;;;;;;10448593;28;20025;-83
2022/11/06 03:35:34;;;;;;;19.90;8.40;;;6.40;99.90;;;;;;10449342;28;20036;-77
2022/11/06 03:40:41;;;;;;;14.63;7.00;;;5.90;99.90;;;;;;10443030;28;20090;-77
2022/11/06 03:45:44;;;;;;;23.10;9.00;;;5.60;99.90;;;;;;10448014;28;20036;-77
2022/11/06 03:50:47;;;;;;;27.60;8.77;;;5.50;99.90;;;;;;10448714;28;20033;-77
2022/11/06 03:55:55;;;;;;;23.87;10.13;;;5.50;99.90;;;;;;10447798;28;20048;-81
2022/11/06 04:00:58;;;;;;;23.73;10.90;;;5.30;99.90;;;;;;10438239;28;20049;-78
2022/11/06 04:06:11;;;;;;;18.83;9.13;;;5.50;99.90;;;;;;10434975;28;20029;-77
2022/11/06 04:16:45;;;;;;;23.10;10.63;;;5.50;99.90;;;;;;10446292;28;20045;-77
2022/11/06 04:22:23;;;;;;;27.20;12.80;;;5.30;99.90;;;;;;10447511;28;20511;-78
2022/11/06 04:27:42;;;;;;;25.03;12.70;;;5.20;99.90;;;;;;10433567;28;20047;-78
2022/11/06 04:32:58;;;;;;;29.53;11.83;;;5.20;99.90;;;;;;10446218;28;20040;-77
2022/11/06 04:38:15;;;;;;;27.48;11.20;;;5.20;99.90;;;;;;10447072;28;20032;-77
2022/11/06 04:43:48;;;;;;;23.37;10.63;;;5.10;99.90;;;;;;10446741;28;20025;-79
2022/11/06 04:48:49;;;;;;;24.93;10.80;;;4.90;99.90;;;;;;10445060;28;20046;-80
2022/11/06 04:53:52;;;;;;;25.97;9.73;;;4.90;99.90;;;;;;10445035;28;20049;-77
2022/11/06 04:58:52;;;;;;;23.20;9.57;;;4.90;99.90;;;;;;10446346;28;20033;-79
2022/11/06 05:03:53;;;;;;;25.93;10.00;;;4.80;99.90;;;;;;10443212;28;20505;-78
2022/11/06 05:08:54;;;;;;;28.30;10.87;;;4.60;99.90;;;;;;10427634;28;20035;-81
2022/11/06 05:13:54;;;;;;;34.27;11.10;;;4.50;99.90;;;;;;10445416;28;20037;-78
2022/11/06 05:18:55;;;;;;;29.63;11.60;;;4.40;99.90;;;;;;10445727;28;20033;-81
2022/11/06 05:23:56;;;;;;;23.13;11.47;;;4.40;99.90;;;;;;10445082;28;20708;-77
2022/11/06 05:28:56;;;;;;;26.03;11.87;;;4.30;99.90;;;;;;10448114;28;20448;-79
2022/11/06 05:33:57;;;;;;;33.67;14.00;;;4.10;99.90;;;;;;10452068;28;20037;-79
2022/11/06 05:38:57;;;;;;;34.30;14.40;;;3.90;99.90;;;;;;10454252;28;20040;-78
2022/11/06 05:43:58;;;;;;;31.63;14.33;;;3.80;99.90;;;;;;10453662;28;20060;-81
2022/11/06 05:48:59;;;;;;;27.57;12.77;;;3.80;99.90;;;;;;10453737;28;20032;-82
2022/11/06 05:53:59;;;;;;;27.33;13.17;;;3.90;99.90;;;;;;10452776;28;20067;-77
2022/11/06 05:59:00;;;;;;;27.63;11.83;;;3.80;99.90;;;;;;10453355;28;20455;-77
2022/11/06 06:04:00;;;;;;;37.67;16.40;;;3.70;99.90;;;;;;10446783;28;20061;-81
2022/11/06 06:09:01;;;;;;;39.37;15.63;;;3.60;99.90;;;;;;10453292;28;20051;-79
2022/11/06 06:14:01;;;;;;;61.67;27.90;;;3.60;99.90;;;;;;10452737;28;20037;-80
2022/11/06 06:19:02;;;;;;;147.43;70.13;;;3.60;99.90;;;;;;10452118;28;20089;-79
2022/11/06 06:24:04;;;;;;;273.90;133.97;;;3.70;99.90;;;;;;10450866;28;20035;-81
2022/11/06 06:29:04;;;;;;;246.73;122.57;;;3.70;99.90;;;;;;10452039;28;20025;-78
2022/11/06 06:34:05;;;;;;;211.87;104.30;;;3.80;99.90;;;;;;10451546;28;20694;-77
2022/11/06 06:39:06;;;;;;;190.60;87.77;;;3.90;99.90;;;;;;10452055;28;20029;-77
2022/11/06 06:44:06;;;;;;;98.70;47.00;;;3.90;99.90;;;;;;10451337;28;20024;-78
2022/11/06 06:49:07;;;;;;;138.53;56.33;;;4.00;99.90;;;;;;10451068;28;20039;-78
2022/11/06 06:54:07;;;;;;;101.37;48.20;;;4.10;99.90;;;;;;10451607;28;20124;-78
2022/11/06 06:59:08;;;;;;;93.93;45.30;;;4.30;99.90;;;;;;10451569;28;20029;-78
2022/11/06 07:04:09;;;;;;;100.93;48.10;;;4.30;99.90;;;;;;10450492;28;20053;-78
2022/11/06 07:09:10;;;;;;;60.87;33.07;;;4.50;99.90;;;;;;10449268;28;20029;-77
2022/11/06 07:14:11;;;;;;;68.70;32.37;;;4.50;99.90;;;;;;10450141;28;20041;-81
2022/11/06 07:19:11;;;;;;;112.93;63.03;;;4.60;99.90;;;;;;10445356;28;20025;-77
2022/11/06 07:24:12;;;;;;;108.40;57.40;;;4.70;99.90;;;;;;10436889;28;20574;-77
2022/11/06 07:29:12;;;;;;;75.33;37.50;;;4.90;99.90;;;;;;10449867;28;20040;-77
2022/11/06 07:34:13;;;;;;;63.40;34.50;;;5.20;99.90;;;;;;10448799;28;20033;-79
2022/11/06 07:39:13;;;;;;;39.23;17.43;;;5.50;99.90;;;;;;10461808;28;20033;-79
2022/11/06 07:44:14;;;;;;;40.47;16.83;;;5.80;99.90;;;;;;10449455;28;20029;-79
2022/11/06 07:49:15;;;;;;;26.17;13.50;;;6.20;99.90;;;;;;10332121;28;20044;-77
2022/11/06 07:54:15;;;;;;;25.87;12.57;;;6.60;99.90;;;;;;10447113;28;20119;-78
2022/11/06 07:59:16;;;;;;;28.37;12.13;;;6.80;99.90;;;;;;10447389;28;20877;-77
2022/11/06 08:04:16;;;;;;;27.17;12.80;;;7.10;99.90;;;;;;10444138;28;20500;-78
2022/11/06 08:09:17;;;;;;;29.63;13.50;;;7.30;99.90;;;;;;10440708;28;20029;-77
2022/11/06 08:14:18;;;;;;;30.87;14.97;;;7.40;99.90;;;;;;10439869;28;20072;-77
2022/11/06 08:19:18;;;;;;;31.73;13.67;;;7.60;99.90;;;;;;10436719;28;20017;-77
2022/11/06 08:24:19;;;;;;;30.07;13.77;;;7.90;99.90;;;;;;10442532;28;20078;-77
2022/11/06 08:29:19;;;;;;;28.20;12.63;;;8.20;99.90;;;;;;10443294;28;20176;-77
2022/11/06 08:34:20;;;;;;;25.63;11.37;;;8.20;99.90;;;;;;10424615;28;20131;-78
2022/11/06 08:39:21;;;;;;;24.17;10.07;;;8.60;99.90;;;;;;10435096;28;20029;-77
2022/11/06 08:44:23;;;;;;;20.23;10.20;;;8.80;99.90;;;;;;10445833;28;20090;-77
2022/11/06 08:49:24;;;;;;;22.67;10.00;;;9.10;99.90;;;;;;10441583;28;20060;-79
2022/11/06 08:54:24;;;;;;;20.13;9.20;;;9.40;99.90;;;;;;10421513;28;20471;-77
2022/11/06 08:59:25;;;;;;;20.07;8.40;;;9.60;99.90;;;;;;10439983;28;20540;-77
2022/11/06 09:04:25;;;;;;;23.77;10.48;;;9.60;99.90;;;;;;10440846;28;20052;-77
2022/11/06 09:09:30;;;;;;;24.05;9.75;;;9.90;99.90;;;;;;10445109;28;20035;-77
2022/11/06 09:14:32;;;;;;;19.00;9.23;;;10.30;99.90;;;;;;10443851;28;20045;-77
2022/11/06 09:19:33;;;;;;;20.95;9.68;;;10.60;99.90;;;;;;10442953;28;20059;-77
2022/11/06 09:24:33;;;;;;;17.02;7.90;;;10.70;99.90;;;;;;10443254;28;20043;-80
2022/11/06 09:29:34;;;;;;;18.83;8.90;;;11.00;99.90;;;;;;10446331;28;20381;-79
2022/11/06 09:34:34;;;;;;;29.30;18.27;;;11.30;99.90;;;;;;10445739;28;20140;-77
2022/11/06 09:39:35;;;;;;;24.65;14.25;;;11.40;99.90;;;;;;10445809;28;20032;-77
2022/11/06 09:44:54;;;;;;;23.55;15.65;;;11.70;99.90;;;;;;10443781;28;20040;-78
2022/11/06 09:49:56;;;;;;;15.27;7.25;;;11.70;99.90;;;;;;10444366;28;20117;-80
2022/11/06 09:55:02;;;;;;;18.77;11.82;;;11.60;99.90;;;;;;10444453;28;20090;-77
2022/11/06 10:00:04;;;;;;;;;;;11.70;99.90;;;;;;10444381;28;20120;-77
2022/11/06 10:05:21;;;;;;;14.52;6.65;;;11.90;99.90;;;;;;10443255;28;19917;-78
2022/11/06 10:10:51;;;;;;;15.43;6.90;;;11.90;99.90;;;;;;10438003;28;20099;-80
2022/11/06 10:16:15;;;;;;;18.48;8.65;;;12.00;99.90;;;;;;10433234;28;20056;-77
2022/11/06 10:21:18;;;;;;;11.05;6.65;;;12.30;99.90;;;;;;10449339;28;20053;-78
2022/11/06 10:26:30;;;;;;;14.43;5.78;;;12.50;99.90;;;;;;10444730;28;20063;-78
2022/11/06 10:31:47;;;;;;;15.18;7.15;;;12.70;99.90;;;;;;10448884;28;20073;-79
2022/11/06 10:36:58;;;;;;;10.70;4.03;;;12.80;99.90;;;;;;10443621;28;20045;-79
2022/11/06 10:42:10;;;;;;;11.63;4.75;;;12.60;99.90;;;;;;10442925;28;20032;-79
2022/11/06 10:47:18;;;;;;;14.30;6.05;;;12.50;99.90;;;;;;10437582;28;20112;-80
2022/11/06 10:52:55;;;;;;;44.15;22.23;;;12.30;99.90;;;;;;10448966;28;20148;-80
2022/11/06 10:58:01;;;;;;;29.58;13.75;;;12.20;99.90;;;;;;10448386;28;20059;-79
2022/11/06 11:03:05;;;;;;;25.90;13.85;;;12.30;99.90;;;;;;10449551;28;20059;-78
2022/11/06 11:08:26;;;;;;;26.55;12.15;;;12.10;99.90;;;;;;10441250;28;20159;-81
2022/11/06 11:13:27;;;;;;;28.00;12.45;;;11.80;99.90;;;;;;10446764;28;20382;-78
2022/11/06 11:18:31;;;;;;;26.33;15.30;;;11.90;99.90;;;;;;10441458;28;20025;-79
2022/11/06 11:23:31;;;;;;;23.88;11.27;;;12.00;99.90;;;;;;10441122;28;20427;-81
2022/11/06 11:28:36;;;;;;;23.55;10.23;;;11.80;99.90;;;;;;10454081;28;20040;-78
2022/11/06 11:33:38;;;;;;;22.45;10.13;;;11.50;99.90;;;;;;10444957;28;20033;-78
2022/11/06 11:38:40;;;;;;;19.92;10.60;;;11.40;99.90;;;;;;10442725;28;20120;-79
2022/11/06 11:43:41;;;;;;;19.52;10.73;;;11.30;99.90;;;;;;10446932;28;20037;-80
2022/11/06 11:48:44;;;;;;;22.67;11.25;;;11.30;99.90;;;;;;10445269;28;20406;-79
2022/11/06 11:53:45;;;;;;;24.75;10.80;;;11.50;99.90;;;;;;10445825;28;20069;-79
2022/11/06 11:58:58;;;;;;;20.90;10.52;;;11.70;99.90;;;;;;10427160;28;20120;-79
2022/11/06 12:03:59;;;;;;;22.40;11.85;;;11.70;99.90;;;;;;10445472;28;20406;-80
2022/11/06 12:09:00;;;;;;;22.98;9.93;;;11.60;99.90;;;;;;10428887;28;20032;-78
2022/11/06 12:14:25;;;;;;;17.75;7.93;;;11.40;99.90;;;;;;10445088;28;20053;-79
2022/11/06 12:19:29;;;;;;;16.58;7.43;;;11.20;99.90;;;;;;10439142;28;20031;-79
2022/11/06 12:24:50;;;;;;;26.80;10.10;;;11.10;99.90;;;;;;10445401;28;20104;-78
2022/11/06 12:30:02;;;;;;;19.25;7.65;;;11.00;99.90;;;;;;10445773;28;20037;-80
2022/11/06 12:35:13;;;;;;;13.20;6.88;;;11.00;99.90;;;;;;10445976;28;20041;-78
2022/11/06 12:40:21;;;;;;;16.98;8.80;;;10.90;99.90;;;;;;10445331;28;20497;-79
2022/11/06 12:45:32;;;;;;;38.00;16.92;;;10.90;99.90;;;;;;10444492;28;20127;-78
2022/11/06 12:50:44;;;;;;;21.05;10.70;;;10.80;99.90;;;;;;10443868;28;20028;-77
2022/11/06 12:56:04;;;;;;;22.58;9.77;;;10.70;99.90;;;;;;10443219;28;20056;-77
2022/11/06 13:01:23;;;;;;;20.00;7.72;;;10.90;99.90;;;;;;10444088;28;20048;-79
2022/11/06 13:06:50;;;;;;;30.30;17.70;;;11.40;99.90;;;;;;10438648;28;20032;-78
2022/11/06 13:12:25;;;;;;;21.30;10.55;;;11.80;99.90;;;;;;10442775;28;20037;-77
2022/11/06 13:17:40;;;;;;;17.35;7.20;;;12.10;99.90;;;;;;10410688;28;20492;-80
2022/11/06 13:22:57;;;;;;;15.50;8.73;;;12.30;99.90;;;;;;10443052;28;20124;-80
2022/11/06 13:28:20;;;;;;;34.90;19.52;;;12.50;99.90;;;;;;10443028;28;20025;-80
2022/11/06 13:33:33;;;;;;;19.13;9.68;;;12.70;99.90;;;;;;10441242;28;20736;-78
2022/11/06 13:38:40;;;;;;;21.90;10.65;;;12.90;99.90;;;;;;10442774;28;20068;-78
2022/11/06 13:44:04;;;;;;;35.15;18.10;;;13.00;99.90;;;;;;10441839;28;20048;-78
2022/11/06 13:49:04;;;;;;;38.15;18.08;;;13.00;99.90;;;;;;10444240;28;20032;-78
2022/11/06 13:54:23;;;;;;;19.95;9.75;;;13.20;99.90;;;;;;10452634;28;20071;-79
2022/11/06 13:59:43;;;;;;;17.90;6.80;;;13.20;99.90;;;;;;10481589;22;20757;-77
2022/11/06 14:05:18;;;;;;;15.73;5.45;;;13.30;99.90;;;;;;10451800;28;20107;-78
2022/11/06 14:10:34;;;;;;;13.57;4.38;;;13.20;99.90;;;;;;10451604;28;20488;-78
2022/11/06 14:15:40;;;;;;;26.08;9.82;;;13.00;99.90;;;;;;10453550;28;20210;-78
2022/11/06 14:20:41;;;;;;;29.17;10.32;;;12.80;99.40;;;;;;10466463;28;20037;-79
2022/11/06 14:25:41;;;;;;;19.30;8.52;;;12.50;99.90;;;;;;10447712;28;20029;-80
2022/11/06 14:30:43;;;;;;;20.52;8.40;;;12.30;99.90;;;;;;10477506;28;20072;-79
2022/11/06 14:35:50;;;;;;;18.13;7.95;;;12.10;99.90;;;;;;10467005;28;20123;-80
2022/11/06 14:40:50;;;;;;;20.17;11.15;;;11.90;99.90;;;;;;10457075;28;20025;-77
2022/11/06 14:45:56;;;;;;;12.18;6.03;;;11.70;99.90;;;;;;10453068;28;20090;-78
2022/11/06 14:50:59;;;;;;;23.70;11.18;;;11.60;99.90;;;;;;10462430;28;20032;-78
2022/11/06 14:56:08;;;;;;;29.63;17.63;;;11.40;99.90;;;;;;10473582;28;20144;-78
2022/11/06 15:01:09;;;;;;;26.85;16.92;;;11.10;99.90;;;;;;10450032;28;20025;-77
2022/11/06 15:06:15;;;;;;;16.73;8.52;;;10.80;99.90;;;;;;10458476;28;20028;-77
2022/11/06 15:11:31;;;;;;;22.77;11.23;;;10.60;99.90;;;;;;10479994;28;20033;-77
2022/11/06 15:16:43;;;;;;;64.38;29.45;;;10.40;99.90;;;;;;10465256;28;20040;-79
2022/11/06 15:21:47;;;;;;;35.53;20.02;;;10.10;99.90;;;;;;10454806;28;20094;-77
2022/11/06 15:26:51;;;;;;;40.13;19.83;;;9.80;99.90;;;;;;10480138;28;20111;-80
2022/11/06 15:32:01;;;;;;;46.40;23.70;;;9.60;99.90;;;;;;10457075;28;20021;-78
2022/11/06 15:37:23;;;;;;;48.27;25.10;;;9.50;99.90;;;;;;10470095;28;20044;-79
2022/11/06 15:42:30;;;;;;;67.43;35.63;;;9.30;99.90;;;;;;10469047;28;20149;-78
2022/11/06 15:47:31;;;;;;;58.78;28.98;;;9.10;99.90;;;;;;10460730;28;20347;-78
2022/11/06 15:52:32;;;;;;;28.90;14.53;;;9.00;99.90;;;;;;10474975;28;20048;-78
2022/11/06 15:57:33;;;;;;;59.97;30.23;;;9.00;99.90;;;;;;10474548;28;20063;-79
2022/11/06 16:02:47;;;;;;;66.33;30.80;;;8.90;99.90;;;;;;10468094;28;20544;-80
2022/11/06 16:07:50;;;;;;;33.87;17.70;;;8.80;99.90;;;;;;10457516;28;20032;-77
2022/11/06 16:12:52;;;;;;;43.33;21.23;;;8.60;99.90;;;;;;10463497;28;20119;-80
2022/11/06 16:18:01;;;;;;;81.07;38.00;;;8.50;99.90;;;;;;10466840;28;20110;-77
2022/11/06 16:23:04;;;;;;;72.30;34.23;;;8.30;99.90;;;;;;10460101;28;20047;-81
2022/11/06 16:28:15;;;;;;;116.83;54.90;;;8.00;99.90;;;;;;10476063;28;20033;-78
2022/11/06 16:33:19;;;;;;;114.57;54.40;;;7.80;99.90;;;;;;10466747;28;20045;-80
2022/11/06 16:38:34;;;;;;;78.40;39.87;;;7.50;99.90;;;;;;10470001;28;20033;-79
2022/11/06 16:43:35;;;;;;;90.50;44.83;;;7.30;99.90;;;;;;10490933;22;20066;-79
2022/11/06 16:48:40;;;;;;;77.20;43.13;;;7.10;99.90;;;;;;10484142;28;20059;-80
2022/11/06 16:53:45;;;;;;;59.50;29.42;;;7.00;99.90;;;;;;10484720;28;20051;-77
2022/11/06 16:59:08;;;;;;;50.97;23.80;;;6.90;99.90;;;;;;10477313;28;20063;-81
2022/11/06 17:04:28;;;;;;;49.93;25.60;;;6.80;99.90;;;;;;10477931;28;20025;-81
2022/11/06 17:09:34;;;;;;;43.77;23.60;;;6.80;99.90;;;;;;10482241;28;20079;-80
2022/11/06 17:14:34;;;;;;;45.70;21.63;;;6.80;99.90;;;;;;10484573;28;20120;-78
2022/11/06 17:19:35;;;;;;;56.60;24.20;;;6.80;99.90;;;;;;10483819;28;20530;-79
2022/11/06 17:24:36;;;;;;;51.17;23.87;;;6.80;99.90;;;;;;10485774;28;20046;-78
2022/11/06 17:29:37;;;;;;;51.93;25.57;;;6.70;99.90;;;;;;10491647;28;20037;-78
2022/11/06 17:34:38;;;;;;;36.50;18.27;;;6.80;99.90;;;;;;10492285;28;20055;-78
2022/11/06 17:39:38;;;;;;;35.83;18.03;;;6.70;99.90;;;;;;10491855;28;20071;-77
2022/11/06 17:44:39;;;;;;;38.77;15.47;;;6.70;99.90;;;;;;10488307;28;20029;-81
2022/11/06 17:49:39;;;;;;;43.13;18.87;;;6.60;99.90;;;;;;10492636;28;20032;-77
2022/11/06 17:54:40;;;;;;;45.90;22.17;;;6.50;99.90;;;;;;10494181;28;20389;-78
2022/11/06 17:59:40;;;;;;;47.73;23.17;;;6.40;99.90;;;;;;10492766;28;20043;-77
2022/11/06 18:04:41;;;;;;;44.73;22.30;;;6.20;99.90;;;;;;10475859;28;20441;-77
2022/11/06 18:09:43;;;;;;;48.63;23.60;;;6.00;99.90;;;;;;10492213;28;20029;-78
2022/11/06 18:14:43;;;;;;;41.53;20.20;;;6.00;99.90;;;;;;10489328;28;20036;-79
2022/11/06 18:19:44;;;;;;;47.07;20.90;;;6.00;99.90;;;;;;10492323;28;20104;-79
2022/11/06 18:24:44;;;;;;;59.10;28.60;;;5.90;99.90;;;;;;10492311;28;20025;-78
2022/11/06 18:29:45;;;;;;;60.83;29.73;;;5.80;99.90;;;;;;10487150;28;20040;-79
2022/11/06 18:34:46;;;;;;;68.47;31.63;;;5.70;99.90;;;;;;10483131;28;20039;-78
2022/11/06 18:39:46;;;;;;;60.20;29.33;;;5.50;99.90;;;;;;10488224;28;20045;-78
2022/11/06 18:44:47;;;;;;;66.80;33.43;;;5.50;99.90;;;;;;10489154;28;20784;-79
2022/11/06 18:49:48;;;;;;;65.70;29.10;;;5.60;99.90;;;;;;10489150;28;20078;-79
2022/11/06 18:54:48;;;;;;;107.63;47.97;;;5.70;99.90;;;;;;10490390;28;20419;-80
2022/11/06 18:59:49;;;;;;;70.43;34.17;;;5.60;99.90;;;;;;10497078;28;20025;-77
2022/11/06 19:04:49;;;;;;;179.77;81.93;;;5.50;99.90;;;;;;10489038;28;20035;-79
2022/11/06 19:09:50;;;;;;;196.17;88.93;;;5.40;99.90;;;;;;10502740;22;20461;-80
2022/11/06 19:14:50;;;;;;;130.03;62.43;;;5.20;99.90;;;;;;10487820;28;20048;-78
2022/11/06 19:19:51;;;;;;;73.47;33.17;;;5.10;99.90;;;;;;10487754;28;20414;-77
2022/11/06 19:24:51;;;;;;;52.93;25.93;;;5.20;99.90;;;;;;10488145;28;20504;-80
2022/11/06 19:29:52;;;;;;;55.83;28.37;;;5.10;99.90;;;;;;10486702;28;20040;-78
2022/11/06 19:34:52;;;;;;;59.53;29.60;;;5.10;99.90;;;;;;10498732;22;20015;-78
2022/11/06 19:39:53;;;;;;;62.03;29.83;;;5.10;99.90;;;;;;10445156;28;20029;-78
2022/11/06 19:44:55;;;;;;;53.07;27.20;;;5.20;99.90;;;;;;10448240;28;20838;-81
2022/11/06 19:49:55;;;;;;;63.73;31.40;;;5.40;99.90;;;;;;10448511;28;20091;-77
2022/11/06 19:54:57;;;;;;;55.40;28.50;;;5.40;99.90;;;;;;10446564;28;20044;-76
2022/11/06 19:59:57;;;;;;;69.47;32.87;;;5.50;99.90;;;;;;10446012;28;20037;-77
2022/11/06 20:04:58;;;;;;;65.93;31.03;;;5.60;99.90;;;;;;10446757;28;20037;-77
2022/11/06 20:10:01;;;;;;;74.60;32.97;;;5.70;99.90;;;;;;10445295;28;20048;-77
2022/11/06 20:15:02;;;;;;;89.43;41.93;;;5.70;99.90;;;;;;10445868;28;20037;-80
2022/11/06 20:20:03;;;;;;;84.00;36.97;;;5.80;99.90;;;;;;10445950;28;20054;-77
2022/11/06 20:25:04;;;;;;;69.03;33.10;;;5.80;99.90;;;;;;10446001;28;20025;-80
2022/11/06 20:30:06;;;;;;;63.33;32.07;;;5.90;99.90;;;;;;10445288;28;20037;-78
2022/11/06 20:35:07;;;;;;;61.73;29.83;;;6.10;99.90;;;;;;10445224;28;20060;-77
2022/11/06 20:40:08;;;;;;;60.23;28.17;;;6.30;99.90;;;;;;10445551;28;20669;-76
2022/11/06 20:45:09;;;;;;;66.50;31.87;;;6.50;99.90;;;;;;10444736;28;20033;-77
2022/11/06 20:50:10;;;;;;;76.33;38.73;;;6.70;99.90;;;;;;10443542;28;20049;-79
2022/11/06 20:55:11;;;;;;;64.07;32.33;;;6.90;99.90;;;;;;10442194;28;20404;-80
2022/11/06 21:00:12;;;;;;;66.00;33.87;;;7.00;99.90;;;;;;10442103;28;20040;-78
2022/11/06 21:05:13;;;;;;;56.80;27.60;;;7.20;99.90;;;;;;10441959;28;20039;-77
2022/11/06 21:10:14;;;;;;;53.67;25.33;;;7.30;99.90;;;;;;10441868;28;20039;-81
2022/11/06 21:15:15;;;;;;;53.07;27.77;;;7.40;99.90;;;;;;10442061;28;20055;-77
2022/11/06 21:20:16;;;;;;;60.80;26.93;;;7.50;99.90;;;;;;10440491;28;20566;-77
2022/11/06 21:25:17;;;;;;;57.93;28.67;;;7.60;99.90;;;;;;10442065;28;20696;-77
2022/11/06 21:30:17;;;;;;;58.53;27.77;;;7.70;99.90;;;;;;10441158;28;20033;-77
2022/11/06 21:35:18;;;;;;;58.37;26.33;;;7.70;99.90;;;;;;10440653;28;20053;-78
2022/11/06 21:40:19;;;;;;;49.77;24.27;;;7.70;99.90;;;;;;10441506;28;20646;-77
2022/11/06 21:45:19;;;;;;;57.50;27.60;;;7.80;99.90;;;;;;10440809;28;20033;-77
2022/11/06 21:50:20;;;;;;;54.23;28.10;;;7.80;99.90;;;;;;10438823;28;20032;-77
2022/11/06 22:00:40;;;;;;;55.53;25.70;;;7.90;99.90;;;;;;10440628;28;20052;-78
2022/11/06 22:05:40;;;;;;;51.70;24.63;;;7.90;99.90;;;;;;10440729;28;20033;-77
2022/11/06 22:10:41;;;;;;;55.83;24.47;;;7.90;99.90;;;;;;10443252;28;20064;-77
2022/11/06 22:15:41;;;;;;;50.40;23.97;;;7.90;99.90;;;;;;10429415;28;20044;-77
2022/11/06 22:20:42;;;;;;;50.90;23.60;;;7.90;99.90;;;;;;10448805;28;20393;-77
2022/11/06 22:25:42;;;;;;;44.70;21.03;;;8.00;99.90;;;;;;10448158;28;20657;-82
2022/11/06 22:30:43;;;;;;;36.90;18.80;;;8.00;99.90;;;;;;10446841;28;20078;-77
2022/11/06 22:35:43;;;;;;;39.23;20.37;;;8.10;99.90;;;;;;10448108;28;20476;-77
2022/11/06 22:40:52;;;;;;;48.83;21.30;;;8.20;99.90;;;;;;10447708;28;20037;-77
2022/11/06 22:45:57;;;;;;;38.23;18.73;;;8.20;99.90;;;;;;10462409;22;20065;-79
2022/11/06 22:51:06;;;;;;;42.65;19.95;;;8.30;99.90;;;;;;10447381;28;20094;-77
2022/11/06 22:56:07;;;;;;;40.43;20.07;;;8.30;99.90;;;;;;10445125;28;20443;-81
2022/11/06 23:01:09;;;;;;;39.80;18.57;;;8.30;99.90;;;;;;10446672;28;20064;-78
2022/11/06 23:06:10;;;;;;;40.40;18.30;;;8.20;99.90;;;;;;10446827;28;20067;-77
2022/11/06 23:11:12;;;;;;;34.80;17.73;;;8.30;99.90;;;;;;10447534;28;20025;-76
2022/11/06 23:16:16;;;;;;;38.30;18.80;;;8.30;99.90;;;;;;10445372;28;20032;-81
2022/11/06 23:21:17;;;;;;;34.50;16.60;;;8.30;99.90;;;;;;10442327;28;20017;-77
2022/11/06 23:26:18;;;;;;;34.57;17.17;;;8.20;99.90;;;;;;10445562;28;20044;-77
2022/11/06 23:31:19;;;;;;;36.17;17.93;;;8.20;99.90;;;;;;10445503;28;20031;-81
2022/11/06 23:36:19;;;;;;;33.80;16.77;;;8.10;99.90;;;;;;10445484;28;20040;-77
2022/11/06 23:46:39;;;;;;;38.00;17.57;;;8.00;99.90;;;;;;10443771;28;20064;-77
2022/11/06 23:51:40;;;;;;;36.80;17.30;;;7.90;99.90;;;;;;10443715;28;20539;-76
2022/11/06 23:56:40;;;;;;;43.93;19.13;;;7.90;99.90;;;;;;10444277;28;20086;-80
